Time;durP1;ratioP1;P1;durP2;ratioP2;P2;SDS_P1;SDS_P2;PMS_P1;PMS_P2;Temp;Humidity;BMP_temperature;BMP_pressure;BME280_temperature;BME280_humidity;BME280_pressure;Samples;Min_cycle;Max_cycle;Signal;HPM_P1;HPM_P2
2022/06/17 00:01:05;;;;;;;16.60;13.20;;;;;;;15.47;82.41;98895.58;107983;1277;23259;-79
2022/06/17 00:03:34;;;;;;;17.10;13.80;;;;;;;15.44;82.49;98897.88;107953;1278;22549;-79
2022/06/17 00:06:03;;;;;;;18.70;15.00;;;;;;;15.39;82.48;98896.52;107953;1277;22538;-79
2022/06/17 00:08:34;;;;;;;16.90;14.90;;;;;;;15.34;82.31;98896.24;107980;1277;23270;-79
2022/06/17 00:11:02;;;;;;;15.80;14.20;;;;;;;15.29;82.12;98892.63;107982;1277;23205;-79
2022/06/17 00:13:29;;;;;;;17.50;14.40;;;;;;;15.28;82.19;98893.44;108090;1277;22566;-79
2022/06/17 00:15:56;;;;;;;14.10;12.20;;;;;;;15.26;82.66;98893.20;108278;1277;22586;-79
2022/06/17 00:18:24;;;;;;;15.60;11.90;;;;;;;15.21;82.77;98895.70;108260;1277;22569;-79
2022/06/17 00:20:51;;;;;;;17.30;13.80;;;;;;;15.15;82.78;98896.69;108288;1275;22541;-79
2022/06/17 00:23:22;;;;;;;17.00;14.30;;;;;;;15.09;82.68;98898.98;108269;1278;22615;-79
2022/06/17 00:25:49;;;;;;;14.90;13.40;;;;;;;15.05;82.38;98898.09;108291;1278;22547;-79
2022/06/17 00:28:19;;;;;;;20.40;13.70;;;;;;;15.01;82.37;98899.77;108275;1277;24243;-78
2022/06/17 00:30:47;;;;;;;15.30;13.70;;;;;;;14.96;82.75;98898.39;108299;1277;22595;-79
2022/06/17 00:33:17;;;;;;;18.90;16.00;;;;;;;14.91;83.06;98897.91;108285;1277;22558;-79
2022/06/17 00:35:53;;;;;;;17.50;14.70;;;;;;;14.92;83.37;98898.06;108289;1277;22577;-78
2022/06/17 00:38:26;;;;;;;17.90;14.60;;;;;;;14.94;83.84;98900.00;108281;1277;22554;-79
2022/06/17 00:40:55;;;;;;;22.20;16.00;;;;;;;14.97;83.79;98904.26;108267;1277;22555;-79
2022/06/17 00:43:33;;;;;;;20.60;17.30;;;;;;;15.01;84.04;98906.77;108301;1277;22582;-79
2022/06/17 00:46:09;;;;;;;21.30;16.00;;;;;;;15.03;84.07;98907.39;108262;1277;22635;-79
2022/06/17 00:48:43;;;;;;;20.50;16.80;;;;;;;15.03;84.10;98907.98;108300;1277;22564;-79
2022/06/17 00:51:22;;;;;;;24.90;16.60;;;;;;;15.08;83.76;98909.25;108294;1277;22534;-79
2022/06/17 00:54:04;;;;;;;22.20;16.20;;;;;;;15.12;83.87;98912.08;108270;1278;22552;-79
2022/06/17 00:56:34;;;;;;;21.10;15.50;;;;;;;15.16;84.00;98909.10;108275;1277;22544;-79
2022/06/17 00:59:13;;;;;;;20.20;17.30;;;;;;;15.18;84.17;98911.71;108296;1278;22547;-79
2022/06/17 01:01:50;;;;;;;21.80;17.10;;;;;;;15.19;83.99;98911.16;108282;1278;22540;-79
2022/06/17 01:04:48;;;;;;;20.90;16.40;;;;;;;15.16;83.71;98908.38;108267;1277;22599;-79
2022/06/17 01:07:21;;;;;;;19.00;15.20;;;;;;;15.15;83.25;98908.66;108273;1277;22596;-79
2022/06/17 01:09:57;;;;;;;17.10;14.20;;;;;;;15.15;83.39;98913.23;108284;1278;22553;-79
2022/06/17 01:12:27;;;;;;;14.80;13.10;;;;;;;15.12;83.73;98912.38;108305;1277;22555;-79
2022/06/17 01:14:55;;;;;;;17.20;13.60;;;;;;;15.10;83.65;98915.73;108281;1278;22813;-79
2022/06/17 01:17:22;;;;;;;16.10;14.00;;;;;;;15.07;84.24;98912.09;108273;1277;22562;-79
2022/06/17 01:19:56;;;;;;;18.40;15.80;;;;;;;15.02;84.03;98913.35;108281;1277;22558;-79
2022/06/17 01:22:26;;;;;;;19.00;15.30;;;;;;;14.99;83.95;98916.43;108265;1278;22588;-79
2022/06/17 01:24:56;;;;;;;17.90;14.70;;;;;;;14.97;83.41;98924.11;108285;1278;22610;-79
2022/06/17 01:27:27;;;;;;;19.30;14.80;;;;;;;14.97;83.49;98925.30;108301;1278;22641;-80
2022/06/17 01:29:55;;;;;;;16.10;13.90;;;;;;;14.97;83.63;98926.52;108260;1276;22548;-79
2022/06/17 01:32:27;;;;;;;15.00;13.40;;;;;;;14.97;83.71;98925.66;108301;1278;22565;-79
2022/06/17 01:34:54;;;;;;;17.00;14.30;;;;;;;14.97;83.84;98926.55;108313;1277;22557;-80
2022/06/17 01:37:22;;;;;;;17.10;14.60;;;;;;;14.96;83.95;98929.41;108273;1278;22627;-79
2022/06/17 01:39:49;;;;;;;17.60;14.80;;;;;;;14.94;83.86;98931.33;108293;1277;22560;-79
2022/06/17 01:42:18;;;;;;;16.50;14.40;;;;;;;14.93;83.72;98932.28;108305;1277;22547;-79
2022/06/17 01:44:45;;;;;;;17.40;14.20;;;;;;;14.94;83.35;98937.29;108265;1278;22560;-79
2022/06/17 01:47:19;;;;;;;15.70;13.50;;;;;;;14.93;83.44;98937.95;108283;1277;22535;-79
2022/06/17 01:49:59;;;;;;;16.00;14.10;;;;;;;14.90;83.80;98941.16;108264;1277;22682;-79
2022/06/17 01:52:33;;;;;;;16.00;14.40;;;;;;;14.83;83.75;98948.21;108280;1277;22598;-79
2022/06/17 01:55:11;;;;;;;16.00;13.90;;;;;;;14.74;84.04;98952.58;108277;1277;22568;-79
2022/06/17 01:57:49;;;;;;;16.10;14.20;;;;;;;14.71;83.51;98953.55;108306;1277;22563;-79
2022/06/17 02:00:21;;;;;;;16.30;13.10;;;;;;;14.70;83.66;98956.54;108291;1278;22552;-79
2022/06/17 02:02:54;;;;;;;15.60;12.70;;;;;;;14.69;83.82;98957.89;108286;1277;22527;-78
2022/06/17 02:05:23;;;;;;;13.90;12.40;;;;;;;14.67;84.21;98964.35;108287;1278;22545;-78
2022/06/17 02:07:58;;;;;;;14.70;12.20;;;;;;;14.64;84.24;98962.95;108276;1277;22545;-78
2022/06/17 02:10:28;;;;;;;16.20;13.40;;;;;;;14.63;84.29;98965.33;108310;1278;22551;-79
2022/06/17 02:12:57;;;;;;;15.10;13.40;;;;;;;14.61;84.19;98960.75;108259;1278;22592;-78
2022/06/17 02:15:24;;;;;;;15.90;13.40;;;;;;;14.58;84.13;98960.75;108327;1277;22638;-78
2022/06/17 02:17:53;;;;;;;15.80;13.70;;;;;;;14.56;83.72;98966.35;108280;1277;22560;-79
2022/06/17 02:20:22;;;;;;;19.00;14.00;;;;;;;14.57;83.80;98971.56;108333;1277;22721;-79
2022/06/17 02:22:50;;;;;;;22.50;14.80;;;;;;;14.56;83.90;98967.95;108282;1278;22542;-79
2022/06/17 02:25:22;;;;;;;24.30;16.00;;;;;;;14.57;83.86;98972.45;108272;1277;22556;-79
2022/06/17 02:27:53;;;;;;;22.60;15.70;;;;;;;14.56;84.02;98976.73;108267;1277;22579;-78
2022/06/17 02:30:21;;;;;;;20.70;14.50;;;;;;;14.52;83.86;98982.27;108272;1277;24328;-79
2022/06/17 02:32:49;;;;;;;20.50;13.70;;;;;;;14.50;83.52;98986.30;108277;1277;22585;-78
2022/06/17 02:35:32;;;;;;;19.80;13.90;;;;;;;14.49;83.12;98987.77;108291;1278;22563;-79
2022/06/17 02:38:00;;;;;;;17.50;13.30;;;;;;;14.49;83.06;98992.73;108298;1277;22557;-79
2022/06/17 02:40:33;;;;;;;18.70;12.60;;;;;;;14.46;83.38;98999.89;108219;1277;22886;-78
2022/06/17 02:43:04;;;;;;;14.90;12.80;;;;;;;14.42;83.34;99008.11;107988;1277;22535;-79
2022/06/17 02:45:38;;;;;;;22.20;15.70;;;;;;;14.37;83.35;99013.02;107955;1277;24272;-79
2022/06/17 02:48:22;;;;;;;24.00;13.90;;;;;;;14.32;83.10;99005.83;107982;1277;22546;-79
2022/06/17 02:50:52;;;;;;;13.20;10.30;;;;;;;14.28;82.85;99012.08;108002;1277;22636;-79
2022/06/17 02:53:26;;;;;;;14.80;10.50;;;;;;;14.28;83.06;99008.23;108003;1277;22567;-79
2022/06/17 02:55:53;;;;;;;13.70;10.30;;;;;;;14.28;82.93;99004.05;107938;1278;22588;-79
2022/06/17 02:58:29;;;;;;;13.50;10.80;;;;;;;14.28;83.12;99000.33;107973;1277;22554;-79
2022/06/17 03:00:58;;;;;;;14.30;11.70;;;;;;;14.28;82.79;98999.84;107950;1277;25336;-79
2022/06/17 03:03:27;;;;;;;18.30;11.80;;;;;;;14.26;82.86;98999.98;107976;1277;22569;-78
2022/06/17 03:05:54;;;;;;;18.40;11.30;;;;;;;14.29;82.71;98993.65;107966;1279;22588;-79
2022/06/17 03:08:23;;;;;;;12.40;10.00;;;;;;;14.36;82.48;98997.13;107960;1277;22579;-79
2022/06/17 03:10:53;;;;;;;11.80;9.40;;;;;;;14.40;82.84;99000.35;107965;1277;23344;-79
2022/06/17 03:13:25;;;;;;;13.20;10.00;;;;;;;14.41;82.90;98997.16;107978;1277;22587;-79
2022/06/17 03:15:57;;;;;;;12.50;9.90;;;;;;;14.40;82.83;99001.56;107980;1277;25223;-79
2022/06/17 03:18:26;;;;;;;13.60;10.60;;;;;;;14.40;82.62;99006.48;107972;1277;22561;-79
2022/06/17 03:20:54;;;;;;;12.60;9.00;;;;;;;14.43;82.32;99011.02;107957;1277;23299;-79
2022/06/17 03:23:42;;;;;;;11.90;8.50;;;;;;;14.50;82.27;99016.91;108002;1277;22571;-79
2022/06/17 03:26:14;;;;;;;11.60;8.40;;;;;;;14.58;82.84;99027.23;107926;1279;22531;-79
2022/06/17 03:28:48;;;;;;;11.90;8.20;;;;;;;14.62;83.10;99031.23;107971;1277;22544;-79
2022/06/17 03:31:32;;;;;;;9.10;8.10;;;;;;;14.65;82.99;99031.95;107974;1279;25628;-79
2022/06/17 03:34:05;;;;;;;11.80;8.30;;;;;;;14.70;82.67;99038.59;107956;1279;22559;-79
2022/06/17 03:36:37;;;;;;;9.20;7.70;;;;;;;14.74;82.19;99040.78;107940;1279;23553;-78
2022/06/17 03:39:14;;;;;;;9.70;6.80;;;;;;;14.80;82.07;99045.34;107982;1279;22564;-78
2022/06/17 03:41:50;;;;;;;9.30;6.80;;;;;;;14.84;82.01;99052.04;107919;1279;22607;-79
2022/06/17 03:44:20;;;;;;;10.70;7.20;;;;;;;14.84;81.96;99057.88;108032;1279;22607;-79
2022/06/17 03:46:57;;;;;;;8.30;6.90;;;;;;;14.82;81.54;99060.65;107963;1279;22603;-79
2022/06/17 03:49:53;;;;;;;10.00;7.70;;;;;;;14.81;81.13;99061.79;107962;1277;22553;-79
2022/06/17 03:52:43;;;;;;;9.10;6.90;;;;;;;14.81;80.87;99065.63;107829;1279;22709;-79
2022/06/17 03:55:16;;;;;;;8.30;6.30;;;;;;;14.82;80.57;99073.08;108007;1279;24216;-79
2022/06/17 03:57:46;;;;;;;10.00;6.70;;;;;;;14.79;80.81;99076.48;107964;1279;22585;-78
2022/06/17 04:00:20;;;;;;;11.30;7.60;;;;;;;14.72;80.54;99082.45;107965;1279;22574;-79
2022/06/17 04:02:49;;;;;;;10.80;6.80;;;;;;;14.64;80.38;99087.23;107940;1279;24243;-79
2022/06/17 04:05:17;;;;;;;9.50;6.20;;;;;;;14.62;80.34;99090.34;107956;1279;22578;-78
2022/06/17 04:07:44;;;;;;;7.90;5.90;;;;;;;14.65;79.95;99095.21;108002;1278;22562;-78
2022/06/17 04:10:17;;;;;;;9.70;6.20;;;;;;;14.66;80.20;99097.77;107976;1279;22540;-78
2022/06/17 04:12:47;;;;;;;8.20;6.40;;;;;;;14.62;80.17;99096.82;107968;1279;22553;-79
2022/06/17 04:15:47;;;;;;;9.20;6.60;;;;;;;14.60;79.94;99101.20;107939;1279;22593;-79
2022/06/17 04:18:14;;;;;;;11.30;7.20;;;;;;;14.56;79.71;99107.46;107999;1279;24164;-79
2022/06/17 04:20:44;;;;;;;9.30;6.40;;;;;;;14.58;79.54;99110.75;107952;1279;22553;-78
2022/06/17 04:23:15;;;;;;;8.80;5.60;;;;;;;14.67;79.53;99116.65;107986;1279;22608;-79
2022/06/17 04:25:52;;;;;;;9.70;5.70;;;;;;;14.72;79.64;99120.61;107934;1277;22554;-79
2022/06/17 04:28:24;;;;;;;8.50;6.70;;;;;;;14.77;79.67;99118.38;107953;1278;22560;-79
2022/06/17 04:30:58;;;;;;;8.10;5.60;;;;;;;14.82;79.76;99118.31;108006;1277;22615;-79
2022/06/17 04:33:28;;;;;;;11.90;6.20;;;;;;;14.89;79.32;99120.61;107967;1277;22704;-79
2022/06/17 04:36:02;;;;;;;9.60;5.30;;;;;;;14.96;79.16;99121.44;107988;1277;22579;-78
2022/06/17 04:38:32;;;;;;;8.80;4.70;;;;;;;15.13;79.79;99121.40;108003;1277;22639;-78
2022/06/17 04:41:05;;;;;;;6.70;4.50;;;;;;;15.36;79.99;99123.84;107930;1277;22553;-78
2022/06/17 04:43:36;;;;;;;6.40;4.80;;;;;;;15.65;80.27;99124.60;108021;1277;22923;-78
2022/06/17 04:46:09;;;;;;;5.80;4.50;;;;;;;16.05;80.30;99133.85;108007;1278;22566;-79
2022/06/17 04:48:36;;;;;;;7.70;4.60;;;;;;;16.51;79.33;99138.23;107981;1277;22557;-79
2022/06/17 04:51:04;;;;;;;8.40;4.50;;;;;;;16.89;78.81;99136.36;107950;1277;22586;-79
2022/06/17 04:53:33;;;;;;;7.10;4.30;;;;;;;17.27;78.02;99134.95;107960;1278;22564;-79
2022/06/17 04:56:05;;;;;;;8.70;4.60;;;;;;;17.65;77.15;99135.71;108006;1277;25342;-79
2022/06/17 04:58:32;;;;;;;6.60;4.50;;;;;;;17.96;75.63;99135.82;108013;1277;22555;-79
2022/06/17 05:00:59;;;;;;;11.30;5.20;;;;;;;18.29;74.29;99136.02;107971;1278;23340;-79
2022/06/17 05:03:29;;;;;;;7.90;5.70;;;;;;;18.41;72.52;99137.59;107967;1278;22564;-80
2022/06/17 05:05:56;;;;;;;8.90;6.10;;;;;;;18.31;71.00;99138.89;107956;1278;22574;-79
2022/06/17 05:08:32;;;;;;;9.60;6.40;;;;;;;18.24;69.84;99140.34;108027;1278;22551;-79
2022/06/17 05:11:14;;;;;;;10.40;8.60;;;;;;;18.17;69.64;99145.02;108004;1278;23446;-79
2022/06/17 05:13:50;;;;;;;19.90;11.50;;;;;;;18.05;69.10;99154.23;108001;1279;22534;-79
2022/06/17 05:16:17;;;;;;;11.80;8.90;;;;;;;17.81;68.58;99155.23;107931;1278;23305;-79
2022/06/17 05:18:44;;;;;;;13.20;8.60;;;;;;;17.61;68.65;99162.27;107978;1278;22720;-79
2022/06/17 05:21:20;;;;;;;11.70;8.70;;;;;;;17.45;68.83;99164.66;108014;1278;22707;-79
2022/06/17 05:23:51;;;;;;;13.70;9.00;;;;;;;17.37;69.16;99157.09;107969;1279;22552;-79
2022/06/17 05:26:18;;;;;;;12.70;9.40;;;;;;;17.27;69.65;99159.90;107976;1278;25155;-79
2022/06/17 05:28:46;;;;;;;16.60;10.30;;;;;;;17.14;69.88;99157.27;107987;1279;22572;-78
2022/06/17 05:31:17;;;;;;;13.50;10.10;;;;;;;17.12;70.09;99158.30;107972;1278;22550;-78
2022/06/17 05:33:47;;;;;;;12.80;10.50;;;;;;;17.13;70.18;99155.93;108010;1277;22473;-78
2022/06/17 05:36:15;;;;;;;18.80;10.70;;;;;;;17.13;69.80;99156.14;107944;1278;24419;-78
2022/06/17 05:38:43;;;;;;;20.60;9.80;;;;;;;17.11;69.81;99159.10;108065;1277;26178;-78
2022/06/17 05:41:15;;;;;;;15.00;9.70;;;;;;;17.20;69.98;99160.50;107948;1277;22744;-78
2022/06/17 05:43:42;;;;;;;14.30;9.30;;;;;;;17.27;70.59;99162.55;107968;1278;22541;-78
2022/06/17 05:46:09;;;;;;;13.70;9.90;;;;;;;17.36;70.70;99164.09;108019;1278;22550;-79
2022/06/17 05:48:36;;;;;;;13.60;10.90;;;;;;;17.37;70.51;99166.77;107984;1278;23935;-78
2022/06/17 05:51:03;;;;;;;13.40;9.80;;;;;;;17.32;70.28;99165.98;107979;1278;22574;-78
2022/06/17 05:53:30;;;;;;;14.40;10.20;;;;;;;17.26;69.69;99167.55;107982;1278;22572;-78
2022/06/17 05:55:57;;;;;;;11.90;8.50;;;;;;;17.18;69.54;99170.71;107941;1278;22555;-78
2022/06/17 05:58:25;;;;;;;13.10;8.20;;;;;;;17.10;69.46;99170.35;107976;1278;22563;-78
2022/06/17 06:00:52;;;;;;;12.40;7.60;;;;;;;17.02;69.05;99173.95;108006;1278;22535;-78
2022/06/17 06:03:25;;;;;;;9.80;7.30;;;;;;;17.02;69.59;99171.52;108198;1277;22559;-78
2022/06/17 06:05:52;;;;;;;10.40;7.10;;;;;;;17.08;70.12;99177.00;107950;1277;22858;-78
2022/06/17 06:08:19;;;;;;;12.30;7.60;;;;;;;17.12;70.13;99183.65;107944;1278;22571;-78
2022/06/17 06:10:46;;;;;;;10.50;7.60;;;;;;;17.13;70.14;99186.96;107986;1278;25336;-78
2022/06/17 06:13:17;;;;;;;12.40;7.10;;;;;;;17.12;69.54;99188.76;107982;1278;22535;-78
2022/06/17 06:15:47;;;;;;;14.40;8.00;;;;;;;17.18;69.36;99195.64;108012;1279;22900;-78
2022/06/17 06:18:18;;;;;;;12.50;7.60;;;;;;;17.26;69.20;99197.51;107960;1277;22530;-78
2022/06/17 06:20:47;;;;;;;11.20;7.50;;;;;;;17.36;69.01;99196.61;107973;1278;24280;-78
2022/06/17 06:23:14;;;;;;;9.90;7.30;;;;;;;17.46;68.53;99194.16;107991;1278;22747;-78
2022/06/17 06:25:41;;;;;;;11.00;7.00;;;;;;;17.60;68.56;99194.61;108012;1278;24002;-78
2022/06/17 06:28:16;;;;;;;9.00;6.60;;;;;;;17.76;68.46;99192.71;108027;1277;22694;-78
2022/06/17 06:30:50;;;;;;;10.60;7.20;;;;;;;17.82;68.08;99195.39;107974;1278;22707;-78
2022/06/17 06:33:17;;;;;;;8.70;6.60;;;;;;;17.84;68.31;99193.94;107941;1277;22586;-78
2022/06/17 06:35:44;;;;;;;13.50;8.00;;;;;;;17.82;67.72;99191.45;107988;1277;22568;-78
2022/06/17 06:38:11;;;;;;;10.30;7.00;;;;;;;17.81;67.73;99192.67;108004;1278;22563;-78
2022/06/17 06:40:38;;;;;;;11.90;7.20;;;;;;;17.83;67.34;99193.17;107999;1278;22543;-78
2022/06/17 06:43:21;;;;;;;10.70;7.20;;;;;;;17.81;67.35;99197.50;108288;1278;22600;-80
2022/06/17 06:45:51;;;;;;;11.80;7.50;;;;;;;17.83;67.27;99196.15;108273;1278;22559;-80
2022/06/17 06:48:22;;;;;;;10.60;7.40;;;;;;;17.80;67.05;99198.20;108223;1278;22546;-80
2022/06/17 06:50:49;;;;;;;9.30;6.90;;;;;;;17.86;66.83;99198.69;107947;1278;25148;-78
2022/06/17 06:53:16;;;;;;;10.70;6.20;;;;;;;17.94;67.21;99198.52;108031;1277;24299;-79
2022/06/17 06:55:43;;;;;;;10.60;6.90;;;;;;;18.07;67.27;99197.79;107982;1278;24945;-79
2022/06/17 06:58:19;;;;;;;13.00;7.30;;;;;;;18.16;67.16;99198.77;108014;1277;22582;-79
2022/06/17 07:00:50;;;;;;;13.20;7.40;;;;;;;18.26;66.73;99202.25;107960;1277;25440;-78
2022/06/17 07:03:18;;;;;;;10.10;6.80;;;;;;;18.40;66.64;99195.89;107988;1277;24263;-78
2022/06/17 07:05:52;;;;;;;10.50;6.90;;;;;;;18.54;66.27;99198.18;107956;1278;24304;-80
2022/06/17 07:08:22;;;;;;;10.70;7.60;;;;;;;18.68;65.98;99195.75;108055;1278;22574;-77
2022/06/17 07:10:52;;;;;;;11.90;7.60;;;;;;;18.76;65.51;99194.14;107963;1279;22583;-78
2022/06/17 07:13:21;;;;;;;7.60;6.30;;;;;;;18.77;65.30;99191.44;108039;1277;22617;-77
2022/06/17 07:15:50;;;;;;;11.40;8.00;;;;;;;18.84;65.13;99193.88;108077;1278;22572;-77
2022/06/17 07:18:24;;;;;;;13.30;7.50;;;;;;;18.94;64.82;99194.40;108054;1277;22583;-78
2022/06/17 07:20:55;;;;;;;9.40;7.00;;;;;;;19.05;64.24;99194.13;108054;1277;22718;-77
2022/06/17 07:23:34;;;;;;;11.70;6.80;;;;;;;19.10;63.69;99200.85;108066;1277;22554;-78
2022/06/17 07:26:05;;;;;;;8.30;6.20;;;;;;;19.17;63.55;99198.86;107978;1277;22574;-81
2022/06/17 07:28:33;;;;;;;8.00;5.90;;;;;;;19.25;63.42;99202.14;107984;1278;22593;-81
2022/06/17 07:31:00;;;;;;;9.40;5.60;;;;;;;19.31;63.77;99204.77;107973;1277;22560;-80
2022/06/17 07:33:29;;;;;;;8.20;5.60;;;;;;;19.39;63.81;99205.77;107962;1279;22660;-79
2022/06/17 07:36:01;;;;;;;7.50;5.30;;;;;;;19.47;63.48;99209.98;108031;1277;22592;-78
2022/06/17 07:41:24;;;;;;;11.40;5.60;;;;;;;19.74;62.64;99206.31;107962;1277;22514;-77
2022/06/17 07:43:52;;;;;;;9.90;5.60;;;;;;;19.88;62.39;99206.56;108020;1278;22544;-77
2022/06/17 07:46:20;;;;;;;8.70;5.80;;;;;;;20.01;61.49;99208.29;108008;1278;22634;-78
2022/06/17 07:48:47;;;;;;;8.40;5.80;;;;;;;20.10;61.47;99209.36;107989;1277;22588;-75
2022/06/17 07:51:15;;;;;;;6.50;5.00;;;;;;;20.23;61.05;99209.88;108026;1279;22570;-78
2022/06/17 07:53:42;;;;;;;25.90;6.70;;;;;;;20.34;60.15;99206.90;108037;1278;22583;-76
2022/06/17 07:56:15;;;;;;;7.40;5.00;;;;;;;20.41;60.29;99206.40;108065;1278;22556;-76
2022/06/17 07:58:43;;;;;;;10.60;4.90;;;;;;;20.57;59.58;99208.15;108047;1278;22556;-77
2022/06/17 08:01:12;;;;;;;7.70;4.90;;;;;;;20.69;59.41;99212.38;108006;1278;22531;-78
2022/06/17 08:03:40;;;;;;;7.60;4.90;;;;;;;20.72;59.17;99214.02;107966;1278;22580;-77
2022/06/17 08:06:09;;;;;;;9.30;4.50;;;;;;;20.72;59.46;99215.63;107966;1278;23055;-77
2022/06/17 08:08:36;;;;;;;19.30;5.40;;;;;;;20.67;59.03;99222.80;107987;1278;23328;-77
2022/06/17 08:11:03;;;;;;;7.40;4.00;;;;;;;20.57;58.69;99221.98;108000;1278;22578;-79
2022/06/17 08:13:30;;;;;;;5.50;4.30;;;;;;;20.43;58.92;99218.96;108006;1279;22646;-76
2022/06/17 08:15:59;;;;;;;7.30;4.30;;;;;;;20.34;58.62;99216.98;108009;1278;23356;-79
2022/06/17 08:18:28;;;;;;;7.20;3.90;;;;;;;20.34;58.79;99223.50;108018;1277;22572;-78
2022/06/17 08:20:55;;;;;;;5.90;3.90;;;;;;;20.45;58.97;99226.77;108296;1277;25236;-79
2022/06/17 08:23:22;;;;;;;7.00;4.00;;;;;;;20.58;58.36;99229.11;108283;1278;26098;-83
2022/06/17 08:25:50;;;;;;;9.70;5.10;;;;;;;20.69;57.94;99229.20;108273;1278;22556;-79
2022/06/17 08:28:18;;;;;;;7.70;4.10;;;;;;;20.79;57.11;99233.29;108303;1278;22606;-78
2022/06/17 08:30:49;;;;;;;6.80;4.00;;;;;;;20.96;57.40;99233.70;108282;1277;25231;-81
2022/06/17 08:33:16;;;;;;;6.50;3.50;;;;;;;21.15;56.81;99243.06;108279;1278;22534;-82
2022/06/17 08:35:50;;;;;;;5.00;3.00;;;;;;;21.32;55.99;99251.77;108290;1278;22580;-83
2022/06/17 08:38:17;;;;;;;6.70;3.00;;;;;;;21.39;55.81;99254.95;108295;1278;22562;-82
2022/06/17 08:40:59;;;;;;;5.30;2.90;;;;;;;21.51;54.78;99258.42;108275;1278;22569;-82
2022/06/17 08:43:51;;;;;;;6.90;2.60;;;;;;;21.72;54.90;99259.46;108306;1278;22572;-80
2022/06/17 08:46:27;;;;;;;5.30;3.10;;;;;;;21.93;54.52;99260.13;108300;1277;22617;-80
2022/06/17 08:49:09;;;;;;;4.80;3.00;;;;;;;22.03;54.36;99260.69;108302;1277;22557;-80
2022/06/17 08:52:11;;;;;;;4.60;2.70;;;;;;;22.05;54.18;99268.63;108294;1278;22552;-80
2022/06/17 08:55:14;;;;;;;5.40;2.80;;;;;;;22.05;54.20;99278.40;108292;1279;22609;-81
2022/06/17 08:57:49;;;;;;;5.40;2.40;;;;;;;22.10;53.84;99284.28;107937;1282;24352;-81
2022/06/17 09:00:26;;;;;;;5.00;2.90;;;;;;;22.18;53.42;99277.85;107897;1282;22538;-81
2022/06/17 09:02:53;;;;;;;3.70;2.20;;;;;;;22.28;53.17;99282.98;107943;1282;23065;-79
2022/06/17 09:06:02;;;;;;;5.90;2.10;;;;;;;22.30;51.12;99282.44;107919;1282;22758;-80
2022/06/17 09:08:44;;;;;;;4.70;2.10;;;;;;;22.41;51.58;99283.32;107930;1282;25247;-79
2022/06/17 09:11:29;;;;;;;6.50;2.90;;;;;;;22.59;51.76;99290.48;107907;1282;22772;-79
2022/06/17 09:14:19;;;;;;;5.40;3.20;;;;;;;22.60;51.78;99293.12;107875;1282;22612;-80
2022/06/17 09:17:24;;;;;;;5.00;2.90;;;;;;;22.59;51.58;99292.45;107938;1282;22707;-80
2022/06/17 09:19:58;;;;;;;3.90;2.50;;;;;;;22.61;50.63;99296.66;107195;1288;22618;-79
2022/06/17 09:22:27;;;;;;;4.40;2.50;;;;;;;22.57;51.22;99294.84;106906;1288;378407;-79
2022/06/17 09:25:00;;;;;;;5.10;2.70;;;;;;;22.49;50.46;99295.66;107176;1288;22545;-79
2022/06/17 09:27:35;;;;;;;5.40;2.90;;;;;;;22.41;50.56;99294.38;107199;1288;25658;-79
2022/06/17 09:30:26;;;;;;;9.50;5.00;;;;;;;22.46;50.72;99293.63;107194;1288;22544;-79
2022/06/17 09:33:08;;;;;;;5.50;2.50;;;;;;;22.75;50.62;99293.44;107226;1288;25329;-79
2022/06/17 09:35:41;;;;;;;5.10;2.40;;;;;;;22.97;50.25;99289.08;107674;1282;25458;-79
2022/06/17 09:38:11;;;;;;;4.40;2.50;;;;;;;23.15;49.27;99289.09;107891;1282;22623;-80
2022/06/17 09:40:59;;;;;;;4.00;2.50;;;;;;;23.15;48.67;99289.91;107922;1282;22738;-80
2022/06/17 09:43:43;;;;;;;6.10;2.30;;;;;;;22.94;49.00;99288.61;107928;1282;22549;-79
2022/06/17 09:46:20;;;;;;;6.90;2.50;;;;;;;22.75;48.96;99285.52;107916;1282;22594;-81
2022/06/17 09:48:56;;;;;;;3.60;2.10;;;;;;;22.66;49.25;99292.61;107891;1282;22551;-80
2022/06/17 09:51:54;;;;;;;6.90;2.60;;;;;;;22.55;49.73;99295.36;107935;1282;22574;-79
2022/06/17 09:54:39;;;;;;;8.70;2.90;;;;;;;22.37;48.97;99294.94;107905;1282;22554;-79
2022/06/17 09:57:42;;;;;;;5.70;2.50;;;;;;;22.27;49.57;99295.86;108275;1277;27002;-80
2022/06/17 10:00:16;;;;;;;4.30;2.50;;;;;;;22.22;48.94;99292.29;108312;1278;22562;-80
2022/06/17 10:03:06;;;;;;;6.90;2.40;;;;;;;22.15;49.07;99300.08;108300;1278;22621;-79
2022/06/17 10:05:39;;;;;;;6.50;1.90;;;;;;;22.04;49.36;99307.06;108299;1278;22618;-81
2022/06/17 10:08:20;;;;;;;4.50;2.60;;;;;;;22.01;48.12;99305.73;108317;1278;22637;-79
2022/06/17 10:11:06;;;;;;;5.70;2.60;;;;;;;22.03;47.68;99307.34;108319;1278;22563;-79
2022/06/17 10:13:48;;;;;;;10.10;4.70;;;;;;;22.05;48.27;99313.15;108297;1278;22564;-79
2022/06/17 10:19:06;;;;;;;5.20;2.50;;;;;;;21.91;46.92;99304.98;108269;1278;22559;-79
2022/06/17 10:21:38;;;;;;;4.40;2.40;;;;;;;21.80;47.22;99309.88;108112;1278;22642;-81
2022/06/17 10:24:20;;;;;;;4.60;2.30;;;;;;;21.70;46.97;99305.68;107977;1277;22625;-79
2022/06/17 10:27:05;;;;;;;6.10;2.70;;;;;;;21.62;47.32;99307.20;107945;1278;22560;-79
2022/06/17 10:29:38;;;;;;;4.70;2.20;;;;;;;21.51;47.18;99305.38;107955;1278;22540;-80
2022/06/17 10:32:06;;;;;;;2.70;1.40;;;;;;;21.41;46.98;99305.23;108001;1278;22551;-79
2022/06/17 10:34:47;;;;;;;1.70;1.10;;;;;;;21.35;46.49;99307.50;108004;1278;25419;-78
2022/06/17 10:37:14;;;;;;;4.30;1.50;;;;;;;21.26;46.39;99302.48;108005;1278;22586;-79
2022/06/17 10:39:43;;;;;;;6.90;2.50;;;;;;;21.22;46.72;99306.57;107946;1278;25578;-79
2022/06/17 10:42:15;;;;;;;10.40;4.70;;;;;;;21.21;46.49;99305.96;107950;1279;22587;-82
2022/06/17 10:44:46;;;;;;;6.80;2.60;;;;;;;21.24;46.94;99305.86;108215;1278;22529;-79
2022/06/17 10:47:19;;;;;;;4.50;1.60;;;;;;;21.27;46.82;99307.59;107993;1278;23512;-80
2022/06/17 10:49:54;;;;;;;9.20;2.70;;;;;;;21.25;46.38;99302.02;107982;1278;23494;-79
2022/06/17 10:52:29;;;;;;;7.30;3.10;;;;;;;21.22;46.66;99303.91;107924;1277;24334;-81
2022/06/17 10:54:57;;;;;;;6.50;2.50;;;;;;;21.25;47.05;99301.85;107967;1277;22768;-79
2022/06/17 10:57:28;;;;;;;2.60;1.20;;;;;;;21.28;46.51;99294.71;107944;1280;24268;-78
2022/06/17 10:59:56;;;;;;;3.70;1.10;;;;;;;21.30;46.00;99290.59;108013;1277;22566;-80
2022/06/17 11:02:30;;;;;;;3.30;1.40;;;;;;;21.31;46.03;99294.57;107995;1278;22664;-80
2022/06/17 11:05:03;;;;;;;5.20;1.50;;;;;;;21.32;46.22;99287.84;108013;1277;22671;-80
2022/06/17 11:07:37;;;;;;;3.30;1.50;;;;;;;21.41;46.24;99297.01;107984;1277;22623;-81
2022/06/17 11:10:13;;;;;;;3.80;1.30;;;;;;;21.48;45.70;99294.81;107966;1277;22558;-81
2022/06/17 11:12:54;;;;;;;3.40;1.30;;;;;;;21.55;45.05;99298.71;108004;1278;22819;-81
2022/06/17 11:15:36;;;;;;;4.00;1.20;;;;;;;21.60;45.03;99298.02;108014;1277;22552;-80
2022/06/17 11:18:14;;;;;;;9.70;4.00;;;;;;;21.63;45.48;99299.71;108001;1278;22515;-79
2022/06/17 11:20:58;;;;;;;5.30;2.00;;;;;;;21.66;45.13;99292.08;107981;1278;22616;-79
2022/06/17 11:23:38;;;;;;;5.40;1.90;;;;;;;21.76;45.62;99292.55;108001;1277;23553;-79
2022/06/17 11:26:26;;;;;;;3.50;1.70;;;;;;;21.86;45.11;99295.92;108021;1277;22603;-80
2022/06/17 11:29:03;;;;;;;24.50;9.90;;;;;;;21.93;44.17;99299.30;107985;1277;22581;-79
2022/06/17 11:31:39;;;;;;;9.70;2.90;;;;;;;22.02;43.90;99300.49;107980;1278;22585;-78
2022/06/17 11:34:18;;;;;;;5.70;1.90;;;;;;;22.19;44.11;99295.64;107971;1277;22812;-80
2022/06/17 11:36:58;;;;;;;3.80;1.60;;;;;;;22.31;43.84;99294.52;108024;1277;22565;-81
2022/06/17 11:39:35;;;;;;;2.90;1.10;;;;;;;22.59;44.18;99296.58;108007;1277;22697;-79
2022/06/17 11:42:16;;;;;;;1.80;1.00;;;;;;;22.87;43.01;99292.38;108208;1277;22560;-81
2022/06/17 11:45:02;;;;;;;4.20;1.20;;;;;;;22.99;43.56;99294.48;108233;1277;22570;-81
2022/06/17 11:47:32;;;;;;;2.30;1.10;;;;;;;23.09;43.15;99295.67;108316;1278;25365;-81
2022/06/17 11:50:16;;;;;;;5.20;1.40;;;;;;;23.12;43.41;99297.58;108307;1277;22643;-81
2022/06/17 11:52:44;;;;;;;2.70;1.20;;;;;;;23.15;43.60;99304.83;108301;1277;22550;-81